Marion Station, Maryland
Current Conditions -  °F | °C
As of 3:54 AM on Saturday 25 Oct 2014 (Local Time) from KWAL Reporting Station
Clear Clear  
Wind Chill: 52°   Ceiling: Unl
Heat Index: 52°   Visibility: 10mi
Dew Point: 44°   Wind: 7mph
Humidity: 74%   Direction: 320°NW
Pressure: 29.92"   Gusts: NA
Location:  38.03°N, 75.76°W
Report Text: KWAL 250754Z AUTO 32006KT 10SM CLR 11/07 A2992 RMK AO2 SLP130 T01110067
Loading
Personal Weather Stations






























Interactive Weather Map
Tropical Storm Tracking
New forecast layout! Learn more

10-Day Weather Forecast

Advertisements
Track Severe Weather on mobile